International Virtual Aviation Organisation

Russian Federation and Kazakhstan MCD

 

Карточка аэропорта ULAA

Внимание!
Информация на этой странице в стадии наполнения.
Если вы не увидели какой-то информации, или заметили неточность - пожалуйста сообщите нам!
Спасибо!
Команда RU-STAFF
Название аэропортаТалаги
Название аэропорта (англ.)Talagi
Превышение62 ft. (18.9 m.)
Координаты64°36.018', 40°43.002'
Высота перехода800m
Эшелон переходаQFE>=760mm:FL040; QFE<760=>733:FL050; QFE<733:FL060
Коды ответчика3120-3127
Зона ОрВДАрхангельск РПИ (ULAA)
Данные METARULAA 240830Z 18003MPS 130V210 3200 1200E SN BKN005 OVC012 M01/M01 Q0999 R08/590339 NOSIG RMK QBB160 QFE749/0998
Проноз погоды (TAF)ULAA 240800Z 2409/2509 17003MPS 4000 -SN BR BKN006 TEMPO 2409/2415 21003G12MPS 1000 SHSN FZDZ BKN003 BKN011CB FM250200 25003MPS 8000 FEW005 BKN011 TEMPO 2502/2509 29003G10MPS 2000 SHSN BR BKN005 BKN011CB
NOTAMshow/hide NOTAM
AWOS   TABLE

Информация о ВПП


Диспетчерские позиции

Позывной Наименование органа УВД Частота
ULAA_APPАрхангельск-Подход122.0
ULAA_TWRАрхангельск-Вышка121.8



Спутниковое изображение